Time;durP1;ratioP1;P1;durP2;ratioP2;P2;SDS_P1;SDS_P2;PMS_P1;PMS_P2;Temp;Humidity;BMP_temperature;BMP_pressure;BME280_temperature;BME280_humidity;BME280_pressure;Samples;Min_cycle;Max_cycle;Signal;HPM_P1;HPM_P2
2022/08/16 00:01:26;;;;;;;11.20;7.50;;;;;;;17.45;88.78;96625.32;109989;1250;60192;-71
2022/08/16 00:04:03;;;;;;;8.40;6.90;;;;;;;17.48;90.10;96624.40;110024;1249;59701;-71
2022/08/16 00:06:33;;;;;;;9.90;7.40;;;;;;;17.53;90.35;96627.05;109685;1250;71575;-69
2022/08/16 00:09:07;;;;;;;11.00;8.40;;;;;;;17.56;88.71;96628.09;109687;1250;68829;-70
2022/08/16 00:11:41;;;;;;;9.10;7.10;;;;;;;17.57;89.00;96623.77;109810;1249;69563;-71
2022/08/16 00:14:14;;;;;;;10.70;7.90;;;;;;;17.56;87.73;96616.82;110188;1250;59649;-71
2022/08/16 00:16:44;;;;;;;11.90;7.20;;;;;;;17.52;88.06;96618.13;109737;1250;59656;-72
2022/08/16 00:19:34;;;;;;;9.50;7.00;;;;;;;17.47;92.20;96622.59;109802;1250;70761;-71
2022/08/16 00:22:10;;;;;;;12.00;9.10;;;;;;;17.44;90.38;96621.89;109714;1249;68984;-71
2022/08/16 00:24:43;;;;;;;10.70;8.60;;;;;;;17.35;93.98;96628.73;109659;1250;69386;-71
2022/08/16 00:27:15;;;;;;;10.30;7.60;;;;;;;17.24;94.78;96626.34;109752;1250;59758;-71
2022/08/16 00:29:45;;;;;;;9.90;7.60;;;;;;;17.25;94.90;96618.84;110085;1250;59700;-70
2022/08/16 00:32:14;;;;;;;10.80;8.50;;;;;;;17.26;96.97;96614.34;110103;1248;70863;-70
2022/08/16 00:34:48;;;;;;;11.00;7.20;;;;;;;17.25;95.12;96617.31;110062;1247;69448;-70
2022/08/16 00:37:25;;;;;;;9.50;6.90;;;;;;;17.26;94.93;96615.80;109662;1250;69493;-71
2022/08/16 00:40:20;;;;;;;12.70;7.90;;;;;;;17.28;95.36;96617.85;109813;1250;59768;-72
2022/08/16 00:43:09;;;;;;;11.00;7.60;;;;;;;17.27;95.80;96619.67;110007;1249;59672;-71
2022/08/16 00:46:18;;;;;;;9.10;6.20;;;;;;;17.26;93.43;96618.04;109850;1247;70865;-71
2022/08/16 00:49:08;;;;;;;11.20;7.80;;;;;;;17.26;93.72;96620.80;109920;1250;68974;-69
2022/08/16 00:51:50;;;;;;;9.70;7.60;;;;;;;17.26;95.58;96619.78;109787;1250;68869;-72
2022/08/16 00:54:27;;;;;;;11.90;8.70;;;;;;;17.25;95.05;96619.89;110007;1249;59749;-72
2022/08/16 00:57:01;;;;;;;10.50;7.70;;;;;;;17.25;94.83;96624.85;110061;1249;59751;-72
2022/08/16 00:59:34;;;;;;;9.10;7.20;;;;;;;17.26;94.24;96623.56;109620;1250;71564;-72
2022/08/16 01:02:17;;;;;;;12.10;7.60;;;;;;;17.27;96.83;96623.73;110034;1250;68637;-71
2022/08/16 01:05:00;;;;;;;10.60;7.70;;;;;;;17.28;98.31;96626.15;110114;1247;68554;-71
2022/08/16 01:07:43;;;;;;;9.50;6.80;;;;;;;17.25;97.42;96622.86;110149;1247;59673;-71
2022/08/16 01:10:23;;;;;;;11.70;8.50;;;;;;;17.27;98.23;96621.83;110186;1247;58931;-72
2022/08/16 01:13:13;;;;;;;13.80;8.60;;;;;;;17.26;98.91;96620.85;110490;1250;71619;-72
2022/08/16 01:15:54;;;;;;;9.50;6.90;;;;;;;17.24;98.15;96621.00;110704;1247;69443;-71
2022/08/16 01:18:30;;;;;;;12.00;9.30;;;;;;;17.21;93.43;96621.27;109979;1248;68638;-71
2022/08/16 01:21:34;;;;;;;12.80;9.00;;;;;;;17.15;95.28;96621.59;110071;1247;59814;-71
2022/08/16 01:24:16;;;;;;;12.50;9.10;;;;;;;17.11;97.02;96626.27;109575;1250;59707;-70
2022/08/16 01:27:22;;;;;;;13.50;8.60;;;;;;;17.08;97.83;96628.38;110051;1247;70620;-71
2022/08/16 01:30:08;;;;;;;11.50;7.80;;;;;;;17.06;97.92;96629.72;109741;1250;69411;-70
2022/08/16 01:32:55;;;;;;;12.00;7.20;;;;;;;17.04;96.06;96636.94;110046;1247;68580;-72
2022/08/16 01:35:50;;;;;;;10.70;7.60;;;;;;;17.02;98.17;96638.55;110102;1247;59646;-70
2022/08/16 01:38:31;;;;;;;9.80;7.00;;;;;;;17.02;99.20;96636.40;110119;1247;59690;-71
2022/08/16 01:41:08;;;;;;;9.70;6.50;;;;;;;17.02;98.22;96633.59;110213;1247;71648;-69
2022/08/16 01:43:41;;;;;;;8.50;6.30;;;;;;;17.04;98.13;96637.11;109954;1248;69541;-70
2022/08/16 01:46:43;;;;;;;12.10;7.90;;;;;;;17.04;98.35;96634.23;109839;1248;68661;-71
2022/08/16 01:49:31;;;;;;;9.80;6.80;;;;;;;17.05;98.68;96634.85;109991;1247;59741;-71
2022/08/16 01:52:16;;;;;;;10.10;6.50;;;;;;;17.06;97.76;96633.88;110025;1247;59703;-72
2022/08/16 01:55:11;;;;;;;9.40;6.60;;;;;;;17.05;98.43;96627.77;110087;1247;71736;-71
2022/08/16 01:57:45;;;;;;;8.80;6.70;;;;;;;17.04;98.80;96626.48;110103;1247;68601;-71
2022/08/16 02:00:26;;;;;;;9.90;6.90;;;;;;;17.03;98.62;96625.80;110169;1247;68456;-70
2022/08/16 02:03:01;;;;;;;9.60;6.90;;;;;;;16.99;98.08;96621.33;109949;1247;59745;-70
2022/08/16 02:05:31;;;;;;;9.30;6.20;;;;;;;16.97;97.48;96622.42;110093;1247;59681;-69
2022/08/16 02:08:03;;;;;;;7.50;5.70;;;;;;;16.93;96.88;96622.83;110003;1247;70881;-70
2022/08/16 02:10:37;;;;;;;7.90;5.70;;;;;;;16.90;96.08;96626.87;109818;1249;69272;-71
2022/08/16 02:13:09;;;;;;;7.40;5.50;;;;;;;16.86;95.68;96623.05;110021;1248;68464;-70
2022/08/16 02:15:40;;;;;;;9.60;6.90;;;;;;;16.82;95.77;96622.11;110204;1249;59694;-69
2022/08/16 02:18:13;;;;;;;9.60;6.70;;;;;;;16.76;96.86;96620.52;109947;1247;59720;-69
2022/08/16 02:20:50;;;;;;;8.90;6.20;;;;;;;16.70;97.51;96620.27;110077;1247;71365;-70
2022/08/16 02:23:22;;;;;;;9.20;7.00;;;;;;;16.64;96.49;96619.69;109952;1247;69428;-70
2022/08/16 02:25:51;;;;;;;;;;;;;;;16.59;96.51;96620.73;110156;1247;68622;-70
2022/08/16 02:28:25;;;;;;;9.60;6.10;;;;;;;16.53;95.74;96619.27;109832;1248;59699;-69
2022/08/16 02:30:58;;;;;;;8.80;6.40;;;;;;;16.47;96.70;96619.74;110083;1247;59705;-70
2022/08/16 02:33:28;;;;;;;9.20;6.00;;;;;;;16.40;95.10;96618.93;109808;1250;71449;-72
2022/08/16 02:36:18;;;;;;;9.00;6.00;;;;;;;16.37;95.00;96621.55;110066;1247;68627;-68
2022/08/16 02:39:13;;;;;;;10.80;7.00;;;;;;;16.33;97.37;96620.09;110094;1247;69347;-69
2022/08/16 02:41:48;;;;;;;10.90;8.00;;;;;;;16.28;97.75;96626.96;109978;1247;59764;-70
2022/08/16 02:44:22;;;;;;;9.80;7.10;;;;;;;16.25;98.54;96629.19;110166;1247;59634;-69
2022/08/16 02:46:55;;;;;;;11.30;6.60;;;;;;;16.24;98.62;96634.90;109678;1250;70975;-70
2022/08/16 02:49:26;;;;;;;11.30;7.90;;;;;;;16.25;99.08;96637.46;109773;1249;68707;-70
2022/08/16 02:52:17;;;;;;;10.10;6.80;;;;;;;16.26;98.81;96640.98;109752;1250;68786;-69
2022/08/16 02:54:56;;;;;;;8.10;5.40;;;;;;;16.27;98.20;96640.17;109777;1250;59748;-70
2022/08/16 02:57:27;;;;;;;10.10;6.80;;;;;;;16.27;95.03;96642.13;109842;1250;59687;-69
2022/08/16 02:59:57;;;;;;;10.70;7.20;;;;;;;16.28;97.46;96649.45;109773;1250;71578;-71
2022/08/16 03:02:30;;;;;;;11.20;7.50;;;;;;;16.28;96.88;96656.76;109740;1250;69479;-70
2022/08/16 03:05:05;;;;;;;10.20;7.80;;;;;;;16.31;96.24;96661.27;110108;1247;69748;-69
2022/08/16 03:07:40;;;;;;;11.80;8.50;;;;;;;16.33;99.63;96660.52;109898;1248;59713;-70
2022/08/16 03:10:19;;;;;;;10.80;8.60;;;;;;;16.35;100.00;96662.94;110134;1247;59638;-68
2022/08/16 03:13:02;;;;;;;12.30;8.20;;;;;;;16.38;100.00;96660.95;110096;1247;70748;-69
2022/08/16 03:15:41;;;;;;;10.70;7.60;;;;;;;16.38;100.00;96663.35;110540;1247;69403;-70
2022/08/16 03:18:13;;;;;;;13.20;8.60;;;;;;;16.40;100.00;96659.81;109765;1247;69402;-69
2022/08/16 03:21:03;;;;;;;14.30;8.80;;;;;;;16.43;100.00;96662.74;110130;1247;59683;-71
2022/08/16 03:23:34;;;;;;;11.50;7.60;;;;;;;16.45;100.00;96665.02;109924;1250;59717;-69
2022/08/16 03:26:05;;;;;;;11.40;7.40;;;;;;;16.47;100.00;96666.20;110040;1249;71342;-70
2022/08/16 03:28:36;;;;;;;8.60;6.20;;;;;;;16.49;100.00;96668.05;110044;1247;68820;-70
2022/08/16 03:31:07;;;;;;;10.90;8.10;;;;;;;16.52;100.00;96658.77;109820;1247;68623;-70
2022/08/16 03:33:38;;;;;;;10.80;7.90;;;;;;;16.56;100.00;96657.16;109933;1247;59745;-70
2022/08/16 03:36:08;;;;;;;11.70;7.70;;;;;;;16.59;100.00;96661.23;109919;1247;59698;-71
2022/08/16 03:39:00;;;;;;;12.40;8.20;;;;;;;16.60;99.84;96658.48;110053;1247;70850;-70
2022/08/16 03:41:31;;;;;;;12.40;8.00;;;;;;;16.61;100.00;96657.29;109822;1249;69259;-72
2022/08/16 03:44:21;;;;;;;11.60;8.20;;;;;;;16.62;100.00;96660.58;110141;1247;69410;-71
2022/08/16 03:47:12;;;;;;;12.60;8.00;;;;;;;16.61;100.00;96660.63;110214;1247;59759;-72
2022/08/16 03:49:49;;;;;;;11.50;7.80;;;;;;;16.62;100.00;96657.18;110143;1247;59655;-71
2022/08/16 03:52:21;;;;;;;11.00;7.50;;;;;;;16.64;100.00;96660.12;109924;1250;70557;-70
2022/08/16 03:54:59;;;;;;;9.30;7.00;;;;;;;16.68;100.00;96663.61;109837;1250;69320;-72
2022/08/16 03:57:30;;;;;;;10.80;7.30;;;;;;;16.71;100.00;96669.19;110131;1250;68633;-70
2022/08/16 04:00:20;;;;;;;8.00;5.70;;;;;;;16.75;100.00;96675.46;110255;1247;59700;-69
2022/08/16 04:03:15;;;;;;;12.40;9.40;;;;;;;16.78;100.00;96684.14;110083;1247;59717;-70
2022/08/16 04:05:49;;;;;;;12.50;9.90;;;;;;;16.77;99.85;96685.61;109840;1250;71654;-69
2022/08/16 04:08:23;;;;;;;11.40;7.50;;;;;;;16.76;98.08;96682.91;109815;1250;69455;-71
2022/08/16 04:10:58;;;;;;;11.20;6.70;;;;;;;16.76;97.75;96684.30;110037;1247;69402;-70
2022/08/16 04:13:29;;;;;;;11.60;9.10;;;;;;;16.76;97.02;96679.18;109860;1249;59681;-72
2022/08/16 04:16:20;;;;;;;10.40;7.80;;;;;;;16.76;96.47;96678.34;110494;1247;59629;-72
2022/08/16 04:18:58;;;;;;;10.00;6.70;;;;;;;16.76;96.24;96679.09;110415;1247;70756;-69
2022/08/16 04:21:33;;;;;;;10.10;6.80;;;;;;;16.76;96.64;96678.00;110152;1247;69327;-72
2022/08/16 04:24:03;;;;;;;10.90;7.60;;;;;;;16.76;97.63;96679.88;109857;1247;67824;-71
2022/08/16 04:26:36;;;;;;;11.40;7.80;;;;;;;16.78;99.52;96680.25;109847;1249;59738;-71
2022/08/16 04:29:15;;;;;;;11.30;7.30;;;;;;;16.80;99.88;96681.86;110197;1247;59640;-70
2022/08/16 04:31:54;;;;;;;7.70;6.10;;;;;;;16.82;99.72;96687.40;110051;1248;71374;-69
2022/08/16 04:34:34;;;;;;;14.60;10.20;;;;;;;16.85;99.37;96679.37;110160;1247;69391;-71
2022/08/16 04:37:05;;;;;;;10.10;7.60;;;;;;;16.85;100.00;96686.07;109790;1248;68307;-69
2022/08/16 04:39:37;;;;;;;10.90;7.10;;;;;;;16.86;100.00;96696.59;109806;1250;59764;-69
2022/08/16 04:42:17;;;;;;;11.30;7.40;;;;;;;16.87;99.93;96691.94;109791;1247;59680;-70
2022/08/16 04:44:56;;;;;;;10.10;7.10;;;;;;;16.85;100.00;96690.30;109850;1247;70730;-71
2022/08/16 04:47:30;;;;;;;10.20;6.80;;;;;;;16.88;100.00;96693.49;110168;1247;69472;-69
2022/08/16 04:50:17;;;;;;;10.70;6.50;;;;;;;16.90;100.00;96701.54;110115;1247;68734;-71
2022/08/16 04:52:58;;;;;;;9.40;6.30;;;;;;;16.93;99.92;96704.14;108802;1247;1760752;-71
2022/08/16 04:55:30;;;;;;;8.10;6.50;;;;;;;16.96;100.00;96708.06;109921;1248;59777;-69
2022/08/16 04:58:07;;;;;;;9.00;6.10;;;;;;;16.97;100.00;96713.05;109967;1247;72343;-72
2022/08/16 05:00:57;;;;;;;15.00;9.60;;;;;;;17.02;100.00;96715.14;110117;1247;68399;-71
2022/08/16 05:03:27;;;;;;;;;;;;;;;16.98;100.00;96716.73;110118;1247;68730;-71
2022/08/16 05:05:56;;;;;;;10.60;7.50;;;;;;;16.95;99.72;96714.61;109899;1249;59636;-73
2022/08/16 05:08:33;;;;;;;11.30;7.50;;;;;;;16.94;98.70;96706.84;109851;1250;59704;-69
2022/08/16 05:11:10;;;;;;;11.80;7.20;;;;;;;16.95;97.46;96700.80;110119;1248;71361;-72
2022/08/16 05:13:43;;;;;;;11.00;8.10;;;;;;;16.95;96.82;96699.38;110032;1247;69844;-70
2022/08/16 05:16:28;;;;;;;10.50;6.90;;;;;;;16.97;99.62;96698.39;109691;1249;69490;-72
2022/08/16 05:19:05;;;;;;;11.70;8.40;;;;;;;17.00;99.88;96699.86;110663;1247;59770;-71
2022/08/16 05:21:54;;;;;;;12.70;9.60;;;;;;;17.03;100.00;96699.89;110095;1249;59650;-71
2022/08/16 05:24:23;;;;;;;11.10;7.90;;;;;;;17.06;100.00;96701.01;110118;1247;70591;-71
2022/08/16 05:26:52;;;;;;;;;;;;;;;17.07;100.00;96695.36;109770;1250;67897;-71
2022/08/16 05:29:24;;;;;;;8.60;6.40;;;;;;;17.07;100.00;96701.33;110038;1249;70079;-72
2022/08/16 05:32:17;;;;;;;10.20;8.70;;;;;;;17.10;100.00;96696.61;110063;1247;59751;-70
2022/08/16 05:35:11;;;;;;;12.10;8.60;;;;;;;17.12;100.00;96695.55;109796;1248;59679;-69
2022/08/16 05:37:58;;;;;;;10.40;7.30;;;;;;;17.15;100.00;96698.94;110181;1247;71392;-69
2022/08/16 05:40:27;;;;;;;14.00;9.50;;;;;;;17.17;100.00;96699.63;110159;1247;69543;-71
2022/08/16 05:42:57;;;;;;;12.90;8.90;;;;;;;17.16;99.81;96695.64;110084;1250;69862;-70
2022/08/16 05:45:26;;;;;;;12.70;8.50;;;;;;;17.14;99.11;96691.64;110173;1248;59691;-70
2022/08/16 05:47:59;;;;;;;9.70;7.30;;;;;;;17.13;99.19;96693.89;110004;1247;59615;-70
2022/08/16 05:50:47;;;;;;;11.10;7.70;;;;;;;17.12;100.00;96693.44;110302;1247;71641;-71
2022/08/16 05:53:21;;;;;;;11.70;7.70;;;;;;;17.14;100.00;96693.73;110023;1247;70028;-71
2022/08/16 05:56:17;;;;;;;13.00;7.50;;;;;;;17.18;100.00;96699.38;109905;1247;69766;-69
2022/08/16 05:58:47;;;;;;;;;;;;;;;17.21;100.00;96701.68;110090;1247;59716;-70
2022/08/16 06:01:18;;;;;;;11.70;8.20;;;;;;;17.24;100.00;96709.47;109891;1248;59703;-70
2022/08/16 06:03:50;;;;;;;9.50;6.80;;;;;;;17.24;100.00;96713.33;110351;1247;71994;-70
2022/08/16 06:06:25;;;;;;;10.90;7.70;;;;;;;17.27;99.57;96716.02;110064;1247;69897;-69
2022/08/16 06:08:56;;;;;;;11.30;7.90;;;;;;;17.28;98.76;96716.05;110248;1247;69826;-72
2022/08/16 06:11:26;;;;;;;8.80;6.80;;;;;;;17.29;98.55;96720.05;110408;1248;59675;-69
2022/08/16 06:13:58;;;;;;;10.60;8.20;;;;;;;17.26;100.00;96726.23;110428;1247;59624;-69
2022/08/16 06:16:39;;;;;;;7.50;5.50;;;;;;;17.23;100.00;96721.61;110095;1247;70793;-71
2022/08/16 06:19:10;;;;;;;7.20;5.40;;;;;;;17.22;100.00;96718.71;110290;1247;69822;-71
2022/08/16 06:21:44;;;;;;;11.70;7.90;;;;;;;17.27;100.00;96715.80;110201;1247;69085;-70
2022/08/16 06:24:23;;;;;;;;;;;;;;;17.31;100.00;96720.38;110351;1247;59673;-69
2022/08/16 06:27:12;;;;;;;9.70;7.40;;;;;;;17.34;100.00;96718.77;110261;1247;59668;-70
2022/08/16 06:29:43;;;;;;;12.60;8.90;;;;;;;17.38;100.00;96718.86;110380;1247;70875;-70
2022/08/16 06:32:19;;;;;;;12.60;9.10;;;;;;;17.41;100.00;96717.52;109889;1248;68631;-72
2022/08/16 06:34:57;;;;;;;11.90;8.30;;;;;;;17.44;100.00;96715.81;110302;1247;69308;-72
2022/08/16 06:37:32;;;;;;;11.10;7.90;;;;;;;17.46;100.00;96713.61;110088;1248;59696;-71
2022/08/16 06:40:07;;;;;;;12.90;8.50;;;;;;;17.53;100.00;96709.13;110071;1247;59707;-70
2022/08/16 06:42:44;;;;;;;8.30;6.80;;;;;;;17.61;100.00;96709.55;110190;1247;71627;-69
2022/08/16 06:45:41;;;;;;;8.40;6.00;;;;;;;17.75;99.94;96713.89;110163;1247;69388;-70
2022/08/16 06:48:27;;;;;;;6.90;5.00;;;;;;;17.86;98.85;96715.08;110320;1247;68477;-71
2022/08/16 06:51:03;;;;;;;10.30;7.40;;;;;;;17.98;97.44;96716.23;110153;1247;59695;-70
2022/08/16 06:53:34;;;;;;;9.30;7.00;;;;;;;18.10;98.58;96724.15;109916;1247;59734;-69
2022/08/16 06:56:06;;;;;;;7.40;6.10;;;;;;;18.24;98.85;96722.67;109830;1250;69799;-69
2022/08/16 06:58:59;;;;;;;7.90;6.00;;;;;;;18.46;97.73;96730.09;109835;1248;69299;-70
2022/08/16 07:01:32;;;;;;;9.00;6.30;;;;;;;18.61;95.63;96729.37;109908;1249;69412;-70
2022/08/16 07:04:14;;;;;;;9.00;6.90;;;;;;;18.79;95.85;96730.86;110137;1250;59676;-69
2022/08/16 07:07:04;;;;;;;7.80;6.20;;;;;;;18.90;93.08;96728.05;110218;1248;59638;-69
2022/08/16 07:09:35;;;;;;;8.50;5.90;;;;;;;19.00;92.36;96726.23;109786;1248;71852;-70
2022/08/16 07:12:04;;;;;;;7.10;5.70;;;;;;;19.21;92.72;96727.46;110060;1247;69848;-71
2022/08/16 07:14:35;;;;;;;7.90;5.30;;;;;;;19.43;91.27;96729.30;110238;1248;68969;-70
2022/08/16 07:17:06;;;;;;;8.40;6.50;;;;;;;19.72;88.84;96726.04;110069;1247;59728;-70
2022/08/16 07:19:46;;;;;;;7.70;6.00;;;;;;;20.21;88.31;96730.84;110004;1248;59755;-70
2022/08/16 07:22:43;;;;;;;7.30;5.60;;;;;;;20.58;83.74;96735.11;110037;1250;70727;-70
2022/08/16 07:25:27;;;;;;;7.50;6.00;;;;;;;20.71;83.53;96734.56;110011;1249;69892;-70
2022/08/16 07:27:56;;;;;;;7.30;6.30;;;;;;;20.85;83.04;96737.42;109994;1250;69252;-68
2022/08/16 07:30:28;;;;;;;7.40;5.70;;;;;;;20.94;82.14;96741.55;109645;1249;59722;-69
2022/08/16 07:33:22;;;;;;;7.40;5.70;;;;;;;20.87;81.58;96746.15;109983;1249;59697;-69
2022/08/16 07:36:13;;;;;;;5.90;5.00;;;;;;;21.11;81.76;96749.27;109866;1247;71831;-70
2022/08/16 07:38:51;;;;;;;6.80;5.40;;;;;;;21.51;81.31;96747.42;109816;1247;68232;-69
2022/08/16 07:41:21;;;;;;;6.60;5.70;;;;;;;21.85;78.49;96748.61;109811;1250;69236;-69
2022/08/16 07:43:53;;;;;;;8.00;6.10;;;;;;;22.27;78.29;96753.91;110029;1247;59777;-70
2022/08/16 07:46:23;;;;;;;6.90;5.70;;;;;;;22.58;76.31;96752.37;110014;1248;59710;-70
2022/08/16 07:49:18;;;;;;;7.70;5.70;;;;;;;23.16;73.56;96750.81;109980;1250;72265;-71
2022/08/16 07:51:47;;;;;;;7.30;5.90;;;;;;;23.66;71.61;96750.67;109663;1250;69824;-70
2022/08/16 07:54:22;;;;;;;6.90;5.00;;;;;;;24.08;69.56;96744.75;109943;1247;69462;-70
2022/08/16 07:57:07;;;;;;;6.40;5.40;;;;;;;24.82;67.84;96747.30;109753;1248;60065;-72
2022/08/16 07:59:39;;;;;;;7.20;6.00;;;;;;;25.31;65.07;96739.17;110055;1247;59732;-73
2022/08/16 08:02:14;;;;;;;7.50;5.30;;;;;;;25.54;63.77;96737.38;109721;1247;71864;-71
2022/08/16 08:04:50;;;;;;;7.50;5.50;;;;;;;25.97;60.96;96742.96;110043;1247;69430;-71
2022/08/16 08:07:19;;;;;;;7.60;6.10;;;;;;;26.40;61.02;96744.44;110021;1247;69443;-72
2022/08/16 08:09:52;;;;;;;7.80;6.10;;;;;;;26.57;59.16;96744.16;110090;1247;59742;-72
2022/08/16 08:12:21;;;;;;;7.70;5.70;;;;;;;26.49;59.08;96743.29;110214;1250;59711;-72
2022/08/16 08:15:09;;;;;;;8.00;6.90;;;;;;;25.94;59.10;96747.21;110480;1248;71620;-71
2022/08/16 08:17:41;;;;;;;7.90;6.10;;;;;;;25.31;60.53;96745.69;109778;1250;70088;-71
2022/08/16 08:20:25;;;;;;;7.70;6.60;;;;;;;24.86;61.39;96748.55;109993;1249;69248;-71
2022/08/16 08:22:59;;;;;;;7.50;5.70;;;;;;;24.79;61.41;96750.86;109701;1250;59728;-70
2022/08/16 08:25:36;;;;;;;8.30;7.00;;;;;;;25.18;62.40;96749.62;109738;1250;59705;-71
2022/08/16 08:28:24;;;;;;;8.60;6.40;;;;;;;25.57;59.89;96752.41;109961;1249;71512;-69
2022/08/16 08:31:02;;;;;;;8.30;6.40;;;;;;;26.04;57.92;96759.85;109982;1249;69699;-72
2022/08/16 08:33:46;;;;;;;9.10;6.70;;;;;;;26.63;58.76;96762.70;109702;1250;68175;-73
2022/08/16 08:36:32;;;;;;;9.60;6.90;;;;;;;26.99;56.51;96758.75;109789;1249;59693;-72
2022/08/16 08:39:33;;;;;;;7.60;6.00;;;;;;;26.97;55.77;96760.48;109878;1247;59681;-71
2022/08/16 08:42:22;;;;;;;8.50;6.30;;;;;;;27.25;56.01;96759.39;109807;1250;71586;-71
2022/08/16 08:44:55;;;;;;;7.10;6.40;;;;;;;27.43;56.11;96759.70;110075;1247;69107;-72
2022/08/16 08:47:24;;;;;;;8.30;6.20;;;;;;;27.16;55.47;96761.60;109795;1250;69248;-72
2022/08/16 08:49:55;;;;;;;8.00;6.00;;;;;;;27.10;55.94;96759.85;109841;1249;59668;-71
2022/08/16 08:52:27;;;;;;;7.70;6.50;;;;;;;27.07;55.14;96760.43;110079;1250;59654;-72
2022/08/16 08:55:10;;;;;;;7.50;6.60;;;;;;;26.62;55.94;96767.42;110031;1249;70865;-72
2022/08/16 08:57:46;;;;;;;8.40;6.50;;;;;;;26.39;58.07;96766.50;109741;1250;69814;-70
2022/08/16 09:00:45;;;;;;;10.90;6.40;;;;;;;26.18;57.82;96765.36;109312;1251;69916;-69
2022/08/16 09:03:19;;;;;;;8.10;6.60;;;;;;;26.36;57.73;96759.17;109882;1248;59695;-69
2022/08/16 09:05:52;;;;;;;8.30;6.00;;;;;;;26.67;57.48;96754.36;109989;1249;59719;-70
2022/08/16 09:08:22;;;;;;;10.00;8.10;;;;;;;26.78;57.07;96752.34;109613;1250;70852;-69
2022/08/16 09:11:00;;;;;;;8.50;7.60;;;;;;;26.30;56.77;96752.52;109975;1249;69760;-69
2022/08/16 09:13:34;;;;;;;8.60;6.60;;;;;;;26.37;56.77;96750.89;109718;1250;70069;-72
2022/08/16 09:16:03;;;;;;;7.00;6.20;;;;;;;26.66;57.12;96751.73;109982;1249;59754;-70
2022/08/16 09:18:32;;;;;;;7.90;6.70;;;;;;;26.54;56.51;96750.05;109840;1249;59695;-72
2022/08/16 09:21:06;;;;;;;6.80;6.10;;;;;;;26.20;56.44;96747.52;110530;1248;72015;-69
2022/08/16 09:23:38;;;;;;;5.90;5.30;;;;;;;26.54;56.75;96745.03;110416;1248;68941;-71
2022/08/16 09:26:14;;;;;;;8.60;7.30;;;;;;;26.39;55.16;96747.61;110002;1250;69533;-71
2022/08/16 09:29:03;;;;;;;10.20;7.70;;;;;;;27.05;53.98;96741.47;109979;1250;59742;-71
2022/08/16 09:31:46;;;;;;;7.90;6.40;;;;;;;27.75;52.07;96729.83;109640;1250;59763;-70
2022/08/16 09:34:23;;;;;;;8.40;6.50;;;;;;;28.64;53.32;96725.03;110073;1248;70764;-69
2022/08/16 09:36:56;;;;;;;10.90;7.50;;;;;;;28.78;51.27;96725.67;110084;1247;69216;-70
2022/08/16 09:39:28;;;;;;;8.80;7.90;;;;;;;28.76;50.14;96727.13;110097;1247;70061;-70
2022/08/16 09:42:10;;;;;;;9.60;7.30;;;;;;;28.95;49.42;96728.90;109964;1247;59712;-71
2022/08/16 09:44:42;;;;;;;8.30;7.40;;;;;;;29.14;48.87;96729.91;110018;1249;59759;-71
2022/08/16 09:47:32;;;;;;;11.30;9.80;;;;;;;29.45;46.93;96739.26;110111;1249;70881;-70
2022/08/16 09:50:24;;;;;;;10.10;8.90;;;;;;;29.53;46.74;96733.50;109715;1249;69810;-71
2022/08/16 09:52:53;;;;;;;7.10;6.40;;;;;;;29.53;47.79;96733.70;109672;1250;70042;-71
2022/08/16 09:55:22;;;;;;;11.00;8.80;;;;;;;30.01;46.26;96731.98;109794;1249;59823;-70
2022/08/16 09:57:52;;;;;;;10.50;8.00;;;;;;;30.66;44.43;96732.20;109657;1250;59683;-72
2022/08/16 10:00:21;;;;;;;;;;;;;;;30.86;44.95;96735.52;109652;1250;71960;-71
2022/08/16 10:03:10;;;;;;;;;;;;;;;30.81;43.60;96731.91;109909;1250;69003;-71
2022/08/16 10:05:39;;;;;;;9.80;6.90;;;;;;;31.03;42.40;96730.81;110180;1250;69200;-72
2022/08/16 10:08:08;;;;;;;9.10;7.30;;;;;;;30.37;41.88;96726.21;109749;1250;60129;-71
2022/08/16 10:13:42;;;;;;;8.10;7.30;;;;;;;30.39;43.26;96725.30;109983;1250;71612;-69
2022/08/16 10:16:12;;;;;;;9.90;7.10;;;;;;;30.66;41.81;96728.43;110077;1248;69877;-72
2022/08/16 10:18:42;;;;;;;8.80;7.40;;;;;;;30.08;42.32;96734.85;110062;1247;70124;-71
2022/08/16 10:21:31;;;;;;;7.80;6.40;;;;;;;29.29;44.41;96731.30;109640;1250;59759;-71
2022/08/16 10:24:02;;;;;;;7.90;6.50;;;;;;;28.27;47.33;96729.80;110032;1250;59686;-71
2022/08/16 10:26:32;;;;;;;8.60;7.00;;;;;;;27.95;47.86;96732.17;110061;1248;71572;-72
2022/08/16 10:29:21;;;;;;;8.80;6.60;;;;;;;26.83;49.98;96732.94;109800;1246;69715;-71
2022/08/16 10:31:50;;;;;;;7.20;6.10;;;;;;;26.33;52.25;96726.39;110087;1247;68953;-71
2022/08/16 10:34:22;;;;;;;8.60;6.30;;;;;;;25.93;53.25;96724.73;110025;1247;59774;-72
2022/08/16 10:37:01;;;;;;;7.00;6.20;;;;;;;25.87;53.57;96721.99;110211;1248;59705;-71
2022/08/16 10:39:30;;;;;;;7.70;5.70;;;;;;;25.40;53.53;96714.80;110111;1248;70771;-71
2022/08/16 10:42:10;;;;;;;6.40;5.60;;;;;;;25.97;53.35;96717.61;110014;1247;68800;-70
2022/08/16 10:44:41;;;;;;;7.70;6.20;;;;;;;26.91;52.00;96719.95;110140;1247;69269;-72
2022/08/16 10:47:22;;;;;;;7.60;5.90;;;;;;;27.46;50.35;96719.72;110103;1247;59764;-71
2022/08/16 10:49:51;;;;;;;8.40;6.50;;;;;;;27.83;48.62;96720.58;110136;1247;59718;-70
2022/08/16 10:52:21;;;;;;;6.80;6.10;;;;;;;28.15;46.55;96717.39;110113;1247;71449;-72
2022/08/16 10:54:51;;;;;;;7.50;6.60;;;;;;;28.01;47.28;96715.66;110106;1247;68842;-72
2022/08/16 10:57:40;;;;;;;8.60;6.10;;;;;;;28.53;46.18;96715.02;110073;1247;70060;-69
2022/08/16 11:00:13;;;;;;;6.60;5.30;;;;;;;28.65;45.77;96712.75;110140;1247;59619;-71
2022/08/16 11:02:51;;;;;;;6.90;5.20;;;;;;;28.67;44.14;96706.20;110110;1247;60106;-70
2022/08/16 11:05:33;;;;;;;5.20;4.00;;;;;;;29.58;43.88;96709.02;110084;1248;70951;-71
2022/08/16 11:08:22;;;;;;;4.90;4.40;;;;;;;30.06;42.65;96705.90;110508;1247;68636;-70
2022/08/16 11:11:06;;;;;;;5.50;4.20;;;;;;;30.75;40.16;96699.44;110351;1247;69670;-71
2022/08/16 11:13:47;;;;;;;6.30;4.70;;;;;;;30.04;40.26;96712.78;110122;1248;59707;-71
2022/08/16 11:16:36;;;;;;;5.70;4.70;;;;;;;29.19;41.92;96704.47;110101;1247;59685;-71
2022/08/16 11:19:25;;;;;;;5.50;4.90;;;;;;;29.36;42.56;96700.09;110062;1247;70909;-71
2022/08/16 11:21:57;;;;;;;6.80;5.40;;;;;;;29.20;41.09;96693.29;109994;1248;69813;-68
2022/08/16 11:24:46;;;;;;;8.50;5.80;;;;;;;28.58;42.79;96694.63;110100;1247;68727;-71
2022/08/16 11:27:35;;;;;;;5.20;4.10;;;;;;;28.79;42.39;96698.84;110075;1248;59730;-70
2022/08/16 11:30:05;;;;;;;4.00;3.20;;;;;;;28.70;42.04;96707.45;110129;1248;59677;-71
2022/08/16 11:32:43;;;;;;;4.20;3.40;;;;;;;28.26;41.78;96717.42;110056;1247;70736;-71
2022/08/16 11:35:18;;;;;;;4.40;3.30;;;;;;;28.21;42.61;96709.85;110071;1247;69799;-71
2022/08/16 11:38:13;;;;;;;3.40;2.90;;;;;;;29.44;41.54;96706.89;110124;1247;69267;-71
2022/08/16 11:41:02;;;;;;;3.70;3.10;;;;;;;30.00;40.13;96706.90;110066;1247;60130;-70
2022/08/16 11:43:35;;;;;;;4.60;3.60;;;;;;;30.38;40.07;96704.46;110074;1247;59685;-71
2022/08/16 11:46:09;;;;;;;4.40;3.30;;;;;;;29.73;39.97;96701.71;110068;1247;71480;-70
2022/08/16 11:48:57;;;;;;;3.40;3.10;;;;;;;29.72;41.05;96699.45;110101;1247;68178;-69
2022/08/16 11:51:26;;;;;;;;;;;;;;;30.35;40.63;96697.78;110140;1247;70122;-69
2022/08/16 11:53:55;;;;;;;;;;;;;;;30.57;38.93;96699.17;110104;1247;59689;-69
2022/08/16 11:56:25;;;;;;;3.90;3.10;;;;;;;30.92;37.43;96696.64;110081;1248;59614;-71
2022/08/16 11:59:13;;;;;;;3.60;2.80;;;;;;;30.27;37.72;96693.83;110013;1248;70877;-70
2022/08/16 12:01:43;;;;;;;3.50;3.10;;;;;;;30.19;38.73;96686.42;110014;1247;68730;-70
2022/08/16 12:04:27;;;;;;;4.20;2.70;;;;;;;29.98;37.99;96686.45;110172;1247;68507;-71
2022/08/16 12:06:57;;;;;;;3.80;3.40;;;;;;;30.93;37.69;96692.84;110069;1247;59723;-69
2022/08/16 12:09:28;;;;;;;3.60;3.00;;;;;;;31.03;36.64;96695.56;110080;1247;59688;-68
2022/08/16 12:11:58;;;;;;;3.60;3.30;;;;;;;30.60;38.17;96693.58;110066;1247;72189;-69
2022/08/16 12:14:32;;;;;;;4.50;3.70;;;;;;;30.68;37.97;96689.45;109719;1250;69303;-68